Time;durP1;ratioP1;P1;durP2;ratioP2;P2;SDS_P1;SDS_P2;PMS_P1;PMS_P2;Temp;Humidity;BMP_temperature;BMP_pressure;BME280_temperature;BME280_humidity;BME280_pressure;Samples;Min_cycle;Max_cycle;Signal;HPM_P1;HPM_P2
2023/01/05 00:00:14;;;;;;;5.57;0.95;;;;;;;;;;5068601;28;20621;-63
2023/01/05 00:02:43;;;;;;;3.15;0.90;;;;;;;;;;5052144;28;20044;-62
2023/01/05 00:05:13;;;;;;;3.22;1.00;;;;;;;;;;5002450;28;20140;-62
2023/01/05 00:07:43;;;;;;;3.92;1.10;;;;;;;;;;5051905;28;20096;-62
2023/01/05 00:22:29;;;;;;;8.85;1.23;;;;;;;;;;5035708;28;20480;-62
2023/01/05 00:24:14;;;;;;;2.13;0.82;;;;;;;;;;5073840;28;20045;-62
2023/01/05 00:26:43;;;;;;;2.33;0.90;;;;;;;;;;5005316;28;20416;-62
2023/01/05 00:29:14;;;;;;;4.38;0.98;;;;;;;;;;5018247;28;20045;-62
2023/01/05 00:31:44;;;;;;;4.03;1.40;;;;;;;;;;5003574;28;20060;-62
2023/01/05 00:34:14;;;;;;;3.42;1.00;;;;;;;;;;5002105;28;20079;-62
2023/01/05 00:36:43;;;;;;;1.65;0.80;;;;;;;;;;5051231;28;20148;-62
2023/01/05 00:39:13;;;;;;;2.83;1.10;;;;;;;;;;5031384;28;20049;-62
2023/01/05 00:41:42;;;;;;;3.58;1.00;;;;;;;;;;5031502;28;20053;-62
2023/01/05 00:44:12;;;;;;;3.83;1.20;;;;;;;;;;4998511;28;20068;-62
2023/01/05 00:46:41;;;;;;;3.22;1.17;;;;;;;;;;5031169;28;20041;-62
2023/01/05 00:49:10;;;;;;;2.35;1.05;;;;;;;;;;4991708;28;20054;-62
2023/01/05 00:51:40;;;;;;;4.55;0.98;;;;;;;;;;4952834;29;20496;-62
2023/01/05 00:54:09;;;;;;;4.55;1.10;;;;;;;;;;4953025;29;20052;-62
2023/01/05 00:56:39;;;;;;;5.22;1.20;;;;;;;;;;4921115;29;20063;-62
2023/01/05 00:59:09;;;;;;;6.63;1.13;;;;;;;;;;4914730;29;20067;-62
2023/01/05 01:01:39;;;;;;;7.40;1.08;;;;;;;;;;4914189;29;20875;-62
2023/01/05 01:04:08;;;;;;;5.35;1.40;;;;;;;;;;4895615;29;20513;-62
2023/01/05 01:06:38;;;;;;;8.63;1.00;;;;;;;;;;4876585;29;20422;-62
2023/01/05 01:09:08;;;;;;;4.38;1.25;;;;;;;;;;4895546;29;20052;-62
2023/01/05 01:11:39;;;;;;;4.13;1.30;;;;;;;;;;4879752;29;20127;-62
2023/01/05 01:14:11;;;;;;;4.78;1.40;;;;;;;;;;4895658;29;20064;-62
2023/01/05 01:16:42;;;;;;;2.53;1.08;;;;;;;;;;4879434;29;20052;-62
2023/01/05 01:19:16;;;;;;;6.47;1.15;;;;;;;;;;4894924;29;20049;-62
2023/01/05 01:21:47;;;;;;;4.00;1.10;;;;;;;;;;4894990;29;20504;-62
2023/01/05 01:24:23;;;;;;;3.00;1.10;;;;;;;;;;4895442;29;20056;-62
2023/01/05 01:26:54;;;;;;;3.22;1.20;;;;;;;;;;4899499;29;20570;-62
2023/01/05 01:29:24;;;;;;;4.60;1.30;;;;;;;;;;4905125;29;20048;-62
2023/01/05 01:31:54;;;;;;;2.50;1.23;;;;;;;;;;4914108;29;20067;-62
2023/01/05 01:34:24;;;;;;;4.28;1.20;;;;;;;;;;4893232;29;20052;-62
2023/01/05 01:36:57;;;;;;;3.83;1.00;;;;;;;;;;4917359;28;20048;-62
2023/01/05 01:39:35;;;;;;;5.32;1.38;;;;;;;;;;4921605;29;20044;-62
2023/01/05 01:42:15;;;;;;;2.67;1.33;;;;;;;;;;4894464;29;20052;-62
2023/01/05 01:44:47;;;;;;;4.22;1.25;;;;;;;;;;4932593;29;20096;-62
2023/01/05 01:47:27;;;;;;;4.07;1.45;;;;;;;;;;4913652;29;20051;-63
2023/01/05 01:49:57;;;;;;;;;;;;;;;;;;4898470;29;20189;-62
2023/01/05 01:52:28;;;;;;;6.88;1.67;;;;;;;;;;4882252;29;19922;-62
2023/01/05 01:55:00;;;;;;;5.70;1.65;;;;;;;;;;4894247;29;20087;-62
2023/01/05 01:57:31;;;;;;;2.95;1.52;;;;;;;;;;4884704;29;20108;-62
2023/01/05 02:00:03;;;;;;;5.78;1.60;;;;;;;;;;4889601;29;20104;-63
2023/01/05 02:02:48;;;;;;;8.20;1.90;;;;;;;;;;4894889;29;20068;-62
2023/01/05 02:05:28;;;;;;;4.28;1.55;;;;;;;;;;4932099;29;20044;-62
2023/01/05 02:07:58;;;;;;;4.03;2.17;;;;;;;;;;4932619;28;20055;-62
2023/01/05 02:10:44;;;;;;;8.18;2.65;;;;;;;;;;4925404;29;20468;-63
2023/01/05 02:13:39;;;;;;;7.28;2.65;;;;;;;;;;4879368;29;20053;-62
2023/01/05 02:16:35;;;;;;;14.45;3.53;;;;;;;;;;4894195;29;20060;-62
2023/01/05 02:19:42;;;;;;;10.00;3.10;;;;;;;;;;4870866;29;20056;-62
2023/01/05 02:22:49;;;;;;;4.22;2.00;;;;;;;;;;4932370;29;20539;-62
2023/01/05 02:25:46;;;;;;;7.47;2.33;;;;;;;;;;4968723;28;20375;-63
2023/01/05 02:28:27;;;;;;;4.53;2.20;;;;;;;;;;4951130;28;20052;-62
2023/01/05 02:31:03;;;;;;;6.88;2.13;;;;;;;;;;4950987;28;20039;-62
2023/01/05 02:34:03;;;;;;;11.43;2.42;;;;;;;;;;4951236;29;20419;-63
2023/01/05 02:37:06;;;;;;;9.20;2.22;;;;;;;;;;4931865;29;20058;-63
2023/01/05 02:39:44;;;;;;;5.78;1.67;;;;;;;;;;4871147;29;20055;-62
2023/01/05 02:42:26;;;;;;;9.40;2.22;;;;;;;;;;4951003;29;20047;-63
2023/01/05 02:44:55;;;;;;;5.95;1.80;;;;;;;;;;4912970;29;20063;-63
2023/01/05 02:47:28;;;;;;;4.30;1.40;;;;;;;;;;4878127;29;20067;-63
2023/01/05 02:50:10;;;;;;;3.90;1.65;;;;;;;;;;4915456;29;20052;-64
2023/01/05 02:52:47;;;;;;;8.15;2.05;;;;;;;;;;4919032;29;20060;-63
2023/01/05 02:55:22;;;;;;;4.93;2.10;;;;;;;;;;4896422;29;20245;-62
2023/01/05 02:58:10;;;;;;;6.22;2.22;;;;;;;;;;4915011;29;20182;-63
2023/01/05 03:00:47;;;;;;;8.10;3.00;;;;;;;;;;4900205;29;20060;-63
2023/01/05 03:03:36;;;;;;;8.93;2.03;;;;;;;;;;4892271;29;20056;-63
2023/01/05 03:06:19;;;;;;;6.85;1.98;;;;;;;;;;4909468;29;20049;-63
2023/01/05 03:08:57;;;;;;;6.00;1.65;;;;;;;;;;4898064;29;20075;-63
2023/01/05 03:15:21;;;;;;;4.45;1.75;;;;;;;;;;4918785;29;20524;-63
2023/01/05 03:18:00;;;;;;;4.97;2.15;;;;;;;;;;4825673;29;20069;-63
2023/01/05 03:20:33;;;;;;;5.28;1.88;;;;;;;;;;4779880;29;20059;-63
2023/01/05 03:37:52;;;;;;;7.88;2.55;;;;;;;;;;4829495;29;19928;-63
2023/01/05 03:40:31;;;;;;;7.82;2.55;;;;;;;;;;4821331;29;20050;-63
2023/01/05 03:43:04;;;;;;;6.88;2.45;;;;;;;;;;4804423;29;20062;-63
2023/01/05 03:45:54;;;;;;;8.70;2.80;;;;;;;;;;4805889;29;20507;-62
2023/01/05 03:48:28;;;;;;;6.60;2.22;;;;;;;;;;4782038;30;20073;-63
2023/01/05 03:50:57;;;;;;;11.52;3.08;;;;;;;;;;4754090;30;20603;-63
2023/01/05 03:53:27;;;;;;;6.93;2.63;;;;;;;;;;4754042;30;20071;-63
2023/01/05 03:55:57;;;;;;;10.85;2.15;;;;;;;;;;4839940;29;20057;-65
2023/01/05 03:58:26;;;;;;;5.97;2.10;;;;;;;;;;4831679;29;20053;-63
2023/01/05 04:00:56;;;;;;;5.80;2.10;;;;;;;;;;4842591;29;20061;-63
2023/01/05 04:03:26;;;;;;;6.07;2.50;;;;;;;;;;4840490;29;20062;-63
2023/01/05 04:06:03;;;;;;;6.65;2.40;;;;;;;;;;4824808;29;20054;-63
2023/01/05 04:08:34;;;;;;;8.10;2.40;;;;;;;;;;4796631;29;20054;-63
2023/01/05 04:11:16;;;;;;;9.27;2.63;;;;;;;;;;4837867;29;20539;-63
2023/01/05 04:14:02;;;;;;;9.80;2.63;;;;;;;;;;4799051;29;20055;-63
2023/01/05 04:16:34;;;;;;;8.30;2.20;;;;;;;;;;4822354;29;20062;-63
2023/01/05 04:19:23;;;;;;;8.65;2.20;;;;;;;;;;4840904;29;20070;-63
2023/01/05 04:21:55;;;;;;;11.27;3.47;;;;;;;;;;4825510;29;20422;-62
2023/01/05 04:24:25;;;;;;;9.70;2.67;;;;;;;;;;4822281;29;20206;-63
2023/01/05 04:26:55;;;;;;;7.65;2.88;;;;;;;;;;4789190;29;20070;-63
2023/01/05 04:29:26;;;;;;;8.80;2.85;;;;;;;;;;4801304;29;20062;-63
2023/01/05 04:31:56;;;;;;;7.85;3.15;;;;;;;;;;4804065;29;20055;-63
2023/01/05 04:34:25;;;;;;;11.60;3.13;;;;;;;;;;4794290;29;20062;-63
2023/01/05 04:36:57;;;;;;;9.82;3.42;;;;;;;;;;4834514;29;20070;-63
2023/01/05 04:39:29;;;;;;;6.82;1.73;;;;;;;;;;4840368;29;20474;-63
2023/01/05 04:41:59;;;;;;;6.38;1.95;;;;;;;;;;4840118;29;20054;-63
2023/01/05 04:44:29;;;;;;;5.18;2.10;;;;;;;;;;4836379;29;20062;-63
2023/01/05 04:47:02;;;;;;;6.80;2.30;;;;;;;;;;4840022;29;20062;-63
2023/01/05 04:49:32;;;;;;;14.52;2.42;;;;;;;;;;4839456;29;20058;-63
2023/01/05 04:52:03;;;;;;;6.53;2.00;;;;;;;;;;4840077;29;20066;-63
2023/01/05 04:54:35;;;;;;;6.85;2.30;;;;;;;;;;4842589;29;20078;-63
2023/01/05 04:57:07;;;;;;;4.05;1.75;;;;;;;;;;4806580;29;20054;-63
2023/01/05 04:59:38;;;;;;;5.93;2.05;;;;;;;;;;4812288;29;20057;-63
2023/01/05 05:02:09;;;;;;;5.43;1.70;;;;;;;;;;4785528;30;20051;-63
2023/01/05 05:04:42;;;;;;;10.68;2.40;;;;;;;;;;4777444;30;20068;-63
2023/01/05 05:07:13;;;;;;;7.45;2.03;;;;;;;;;;4748489;30;20216;-63
2023/01/05 05:09:43;;;;;;;6.60;1.85;;;;;;;;;;4752942;30;20056;-63
2023/01/05 05:12:13;;;;;;;9.20;2.33;;;;;;;;;;4794865;29;20062;-63
2023/01/05 05:14:43;;;;;;;6.32;2.83;;;;;;;;;;4821679;29;20053;-63
2023/01/05 05:17:13;;;;;;;10.60;3.15;;;;;;;;;;4803205;29;20054;-63
2023/01/05 05:19:44;;;;;;;9.65;2.83;;;;;;;;;;4814310;29;20055;-63
2023/01/05 05:22:13;;;;;;;8.75;3.40;;;;;;;;;;4785388;30;20484;-64
2023/01/05 05:24:42;;;;;;;8.30;2.90;;;;;;;;;;4800331;29;20075;-63
2023/01/05 05:27:13;;;;;;;12.07;3.33;;;;;;;;;;4810591;29;20452;-65
2023/01/05 05:29:42;;;;;;;12.98;3.42;;;;;;;;;;4812318;29;20059;-63
2023/01/05 05:32:12;;;;;;;15.90;4.68;;;;;;;;;;4820560;29;20511;-63
2023/01/05 05:34:41;;;;;;;17.90;3.72;;;;;;;;;;4854939;29;20069;-63
2023/01/05 05:37:11;;;;;;;13.77;3.25;;;;;;;;;;4849587;29;20069;-64
2023/01/05 05:39:40;;;;;;;11.23;3.38;;;;;;;;;;4839573;29;20070;-62
2023/01/05 05:42:10;;;;;;;8.93;2.30;;;;;;;;;;4839573;29;20058;-63
2023/01/05 05:44:39;;;;;;;4.32;2.08;;;;;;;;;;4839729;29;20065;-62
2023/01/05 05:47:08;;;;;;;8.48;2.33;;;;;;;;;;4839527;29;20074;-63
2023/01/05 05:49:38;;;;;;;6.05;1.75;;;;;;;;;;4872504;29;20113;-62
2023/01/05 05:52:07;;;;;;;9.10;2.38;;;;;;;;;;4910216;29;20056;-62
2023/01/05 05:54:36;;;;;;;5.72;2.08;;;;;;;;;;4951514;28;20054;-63
2023/01/05 05:57:06;;;;;;;9.63;2.92;;;;;;;;;;5006005;28;20078;-62
2023/01/05 05:59:35;;;;;;;7.70;2.15;;;;;;;;;;5029958;28;20061;-63
2023/01/05 06:02:04;;;;;;;6.30;2.20;;;;;;;;;;5030076;28;20076;-62
2023/01/05 06:04:35;;;;;;;5.07;1.92;;;;;;;;;;5041759;28;20139;-62
2023/01/05 06:07:04;;;;;;;4.50;1.65;;;;;;;;;;5072066;28;20052;-63
2023/01/05 06:09:34;;;;;;;6.50;2.10;;;;;;;;;;5072008;28;20051;-62
2023/01/05 06:12:04;;;;;;;6.82;2.03;;;;;;;;;;5036509;28;20055;-63
2023/01/05 06:14:33;;;;;;;7.90;2.72;;;;;;;;;;5020168;28;20502;-63
2023/01/05 06:17:03;;;;;;;7.03;2.08;;;;;;;;;;5003502;28;20485;-63
2023/01/05 06:19:32;;;;;;;5.55;1.80;;;;;;;;;;5071807;28;20044;-63
2023/01/05 06:22:01;;;;;;;9.45;2.05;;;;;;;;;;5072040;28;20053;-63
2023/01/05 06:24:31;;;;;;;9.98;2.00;;;;;;;;;;5002733;28;20056;-63
2023/01/05 06:27:00;;;;;;;8.95;2.50;;;;;;;;;;5071837;28;20062;-62
2023/01/05 06:29:30;;;;;;;7.00;2.22;;;;;;;;;;5036190;28;20048;-65
2023/01/05 06:31:59;;;;;;;7.20;1.70;;;;;;;;;;5071861;28;20048;-62
2023/01/05 06:34:28;;;;;;;3.58;1.58;;;;;;;;;;5053126;28;20064;-62
2023/01/05 06:36:58;;;;;;;5.20;1.80;;;;;;;;;;5003194;28;20060;-62
2023/01/05 06:39:30;;;;;;;8.18;2.05;;;;;;;;;;5071981;28;20507;-62
2023/01/05 06:41:59;;;;;;;10.15;2.22;;;;;;;;;;5071510;28;20500;-62
2023/01/05 06:44:28;;;;;;;10.10;2.50;;;;;;;;;;5071778;28;20044;-63
2023/01/05 06:46:58;;;;;;;5.75;1.70;;;;;;;;;;5003596;28;20053;-62
2023/01/05 06:49:27;;;;;;;8.48;2.53;;;;;;;;;;5071405;28;20053;-62
2023/01/05 06:51:57;;;;;;;7.40;2.00;;;;;;;;;;5052712;28;20060;-63
2023/01/05 06:54:26;;;;;;;5.13;2.33;;;;;;;;;;5036858;28;20067;-62
2023/01/05 06:56:55;;;;;;;5.65;1.70;;;;;;;;;;5071438;28;20040;-62
2023/01/05 06:59:25;;;;;;;8.40;1.90;;;;;;;;;;5019359;28;20420;-63
2023/01/05 07:01:54;;;;;;;7.40;1.70;;;;;;;;;;5071534;28;20045;-62
2023/01/05 07:04:24;;;;;;;5.22;2.22;;;;;;;;;;5003547;28;20389;-62
2023/01/05 07:06:53;;;;;;;10.43;2.28;;;;;;;;;;5071085;28;20420;-64
2023/01/05 07:09:23;;;;;;;5.18;1.90;;;;;;;;;;4976714;28;20050;-62
2023/01/05 07:11:52;;;;;;;9.07;1.90;;;;;;;;;;4976276;28;20054;-62
2023/01/05 07:14:21;;;;;;;4.40;1.77;;;;;;;;;;4992726;28;20042;-63
2023/01/05 07:16:51;;;;;;;6.60;1.88;;;;;;;;;;5009412;28;20069;-62
2023/01/05 07:19:20;;;;;;;6.75;2.40;;;;;;;;;;5009268;28;20760;-62
2023/01/05 07:21:50;;;;;;;7.05;2.72;;;;;;;;;;4976986;28;20161;-63
2023/01/05 07:24:24;;;;;;;7.78;1.92;;;;;;;;;;4938015;28;20051;-62
2023/01/05 07:26:53;;;;;;;6.53;1.70;;;;;;;;;;4938769;28;20051;-62
2023/01/05 07:29:23;;;;;;;7.60;1.70;;;;;;;;;;4954070;28;20407;-63
2023/01/05 07:31:53;;;;;;;7.63;1.90;;;;;;;;;;4969841;28;20059;-62
2023/01/05 07:34:23;;;;;;;6.32;2.10;;;;;;;;;;4953676;28;20062;-62
2023/01/05 07:36:52;;;;;;;7.38;2.63;;;;;;;;;;4956198;28;20062;-62
2023/01/05 07:39:21;;;;;;;5.78;2.10;;;;;;;;;;4973854;28;20050;-62
2023/01/05 07:41:50;;;;;;;5.10;1.77;;;;;;;;;;4973673;28;20067;-62
2023/01/05 07:44:20;;;;;;;6.88;1.80;;;;;;;;;;4957656;28;20062;-63
2023/01/05 07:46:49;;;;;;;7.13;2.30;;;;;;;;;;4989936;28;20080;-62
2023/01/05 07:49:19;;;;;;;10.32;2.13;;;;;;;;;;5012564;28;20062;-62
2023/01/05 07:51:48;;;;;;;3.88;1.73;;;;;;;;;;4980478;28;20065;-62
2023/01/05 07:54:20;;;;;;;14.27;2.63;;;;;;;;;;5012557;28;20061;-62
2023/01/05 07:56:49;;;;;;;5.93;1.98;;;;;;;;;;4973424;28;20055;-63
2023/01/05 07:59:19;;;;;;;5.95;2.10;;;;;;;;;;4941168;28;20054;-62
2023/01/05 08:01:48;;;;;;;5.13;2.15;;;;;;;;;;4990037;28;20069;-63
2023/01/05 08:04:18;;;;;;;6.78;2.13;;;;;;;;;;5031980;28;20045;-62
2023/01/05 08:06:47;;;;;;;12.43;1.92;;;;;;;;;;5032126;28;20053;-63
2023/01/05 08:12:05;;;;;;;7.82;2.28;;;;;;;;;;5012165;28;20057;-62
2023/01/05 08:14:35;;;;;;;10.40;2.92;;;;;;;;;;4979535;28;20410;-63
2023/01/05 08:17:04;;;;;;;8.30;2.20;;;;;;;;;;4963578;28;20073;-62
2023/01/05 08:19:33;;;;;;;8.23;2.25;;;;;;;;;;5011962;28;20576;-62
2023/01/05 08:22:03;;;;;;;7.78;2.17;;;;;;;;;;4972908;28;20054;-63
2023/01/05 08:24:32;;;;;;;7.30;1.92;;;;;;;;;;5004923;28;20054;-62
2023/01/05 08:27:02;;;;;;;6.30;1.92;;;;;;;;;;4956321;28;20530;-62
2023/01/05 08:29:32;;;;;;;4.97;1.55;;;;;;;;;;4988852;28;20050;-63
2023/01/05 08:32:01;;;;;;;6.70;1.75;;;;;;;;;;4972895;28;20102;-62
2023/01/05 08:34:31;;;;;;;6.78;2.00;;;;;;;;;;4966474;28;20062;-62
2023/01/05 08:37:02;;;;;;;7.03;2.08;;;;;;;;;;4924884;28;20055;-63
2023/01/05 08:39:34;;;;;;;5.30;1.52;;;;;;;;;;4956155;28;20415;-62
2023/01/05 08:42:04;;;;;;;9.30;2.05;;;;;;;;;;4972910;28;20065;-62
2023/01/05 08:44:33;;;;;;;6.88;2.05;;;;;;;;;;4972349;28;20514;-62
2023/01/05 08:47:02;;;;;;;5.75;1.60;;;;;;;;;;4972362;28;20063;-63
2023/01/05 08:49:32;;;;;;;7.43;2.00;;;;;;;;;;4939814;28;20054;-63
2023/01/05 08:52:01;;;;;;;5.68;2.25;;;;;;;;;;4972262;28;20419;-62
2023/01/05 08:54:30;;;;;;;8.07;1.90;;;;;;;;;;4972321;28;20062;-64
2023/01/05 08:57:01;;;;;;;6.10;1.80;;;;;;;;;;4956047;28;20055;-62
2023/01/05 08:59:30;;;;;;;6.30;2.17;;;;;;;;;;4989075;28;20069;-63
2023/01/05 09:02:00;;;;;;;11.43;2.53;;;;;;;;;;5011492;28;20062;-63
2023/01/05 09:04:29;;;;;;;6.03;2.10;;;;;;;;;;4994711;28;20065;-62
2023/01/05 09:06:59;;;;;;;7.30;2.30;;;;;;;;;;5011137;28;20387;-62
2023/01/05 09:09:28;;;;;;;10.18;2.33;;;;;;;;;;5054818;28;20060;-63
2023/01/05 09:11:57;;;;;;;9.10;2.08;;;;;;;;;;5073237;28;20095;-62
2023/01/05 09:14:27;;;;;;;6.93;2.22;;;;;;;;;;5038255;28;20054;-63
2023/01/05 09:16:57;;;;;;;6.97;2.42;;;;;;;;;;5072998;28;20484;-62
2023/01/05 09:19:36;;;;;;;7.75;2.08;;;;;;;;;;5073051;28;20044;-62
2023/01/05 09:22:05;;;;;;;5.40;1.80;;;;;;;;;;5010812;28;20421;-62
2023/01/05 09:24:35;;;;;;;6.10;1.80;;;;;;;;;;4961811;28;20049;-63
2023/01/05 09:27:06;;;;;;;4.82;1.38;;;;;;;;;;4994366;28;20093;-62
2023/01/05 09:29:35;;;;;;;5.93;1.70;;;;;;;;;;5010842;28;20193;-62
2023/01/05 09:32:06;;;;;;;6.05;1.70;;;;;;;;;;4961969;28;20058;-62
2023/01/05 09:34:35;;;;;;;4.95;1.80;;;;;;;;;;4994625;28;20060;-64
2023/01/05 09:37:05;;;;;;;4.32;1.88;;;;;;;;;;5010632;28;20061;-62
2023/01/05 09:39:35;;;;;;;7.60;2.33;;;;;;;;;;4961717;28;20054;-62
2023/01/05 09:42:10;;;;;;;6.00;2.65;;;;;;;;;;5010595;28;20057;-64
2023/01/05 09:44:50;;;;;;;6.75;2.45;;;;;;;;;;5010737;28;20137;-62
2023/01/05 09:47:36;;;;;;;8.10;2.20;;;;;;;;;;5010409;28;20049;-63
2023/01/05 09:50:26;;;;;;;10.45;3.20;;;;;;;;;;5009863;28;20056;-63
2023/01/05 09:52:59;;;;;;;8.95;2.85;;;;;;;;;;5010331;28;20061;-63
2023/01/05 09:55:31;;;;;;;13.48;5.10;;;;;;;;;;5010325;28;20417;-63
2023/01/05 09:58:06;;;;;;;12.80;4.68;;;;;;;;;;5010495;28;20061;-63
2023/01/05 10:00:41;;;;;;;26.80;8.57;;;;;;;;;;5062233;28;20056;-62
2023/01/05 10:03:18;;;;;;;26.48;10.02;;;;;;;;;;5072117;28;20488;-62
2023/01/05 10:06:14;;;;;;;21.50;7.82;;;;;;;;;;5072272;28;20037;-62
2023/01/05 10:08:49;;;;;;;13.77;5.57;;;;;;;;;;5037106;28;20064;-64
2023/01/05 10:14:21;;;;;;;12.05;5.10;;;;;;;;;;5036764;28;20053;-63
2023/01/05 10:16:51;;;;;;;11.82;4.50;;;;;;;;;;5071984;28;20059;-62
2023/01/05 10:19:41;;;;;;;9.48;3.78;;;;;;;;;;5071848;28;20040;-62
2023/01/05 10:22:31;;;;;;;10.80;3.85;;;;;;;;;;5036034;28;20496;-63
2023/01/05 10:26:04;;;;;;;10.20;3.45;;;;;;;;;;5036632;28;20055;-62
2023/01/05 10:28:52;;;;;;;12.13;4.38;;;;;;;;;;4970632;28;20083;-63
2023/01/05 10:31:27;;;;;;;12.75;5.40;;;;;;;;;;4951173;29;20074;-63
2023/01/05 10:34:20;;;;;;;14.07;5.32;;;;;;;;;;4919595;29;20067;-63
2023/01/05 10:37:21;;;;;;;9.32;3.97;;;;;;;;;;4913203;29;20056;-62
2023/01/05 10:40:10;;;;;;;10.23;4.03;;;;;;;;;;4844689;29;20041;-63
2023/01/05 10:42:57;;;;;;;10.02;4.05;;;;;;;;;;4875410;29;20061;-63
2023/01/05 10:45:29;;;;;;;10.85;2.92;;;;;;;;;;4875564;29;20111;-63
2023/01/05 10:47:59;;;;;;;9.18;2.83;;;;;;;;;;4811407;29;20067;-63
2023/01/05 10:50:36;;;;;;;8.00;2.83;;;;;;;;;;4856888;29;20061;-63
2023/01/05 10:53:23;;;;;;;3.95;1.10;;;;;;;;;;4856815;29;20054;-63
2023/01/05 10:56:03;;;;;;;8.27;1.73;;;;;;;;;;4856923;29;20115;-63
2023/01/05 10:58:38;;;;;;;4.78;1.42;;;;;;;;;;4852135;29;20081;-63
2023/01/05 11:01:26;;;;;;;4.50;1.38;;;;;;;;;;4823091;29;20058;-63
2023/01/05 11:04:14;;;;;;;3.38;1.30;;;;;;;;;;4808144;29;20065;-63
2023/01/05 11:07:05;;;;;;;5.40;1.48;;;;;;;;;;4931721;29;20075;-63
2023/01/05 11:09:39;;;;;;;2.22;0.93;;;;;;;;;;4898144;29;20066;-63
2023/01/05 11:12:21;;;;;;;2.92;0.82;;;;;;;;;;4954724;28;20059;-64
2023/01/05 11:14:56;;;;;;;2.70;1.65;;;;;;;;;;4934246;28;20062;-63
2023/01/05 11:17:28;;;;;;;10.68;3.78;;;;;;;;;;5013347;28;20053;-63
2023/01/05 11:19:58;;;;;;;2.58;1.08;;;;;;;;;;4993357;28;20057;-63
2023/01/05 11:22:38;;;;;;;7.05;1.05;;;;;;;;;;4993475;28;20062;-63
2023/01/05 11:25:31;;;;;;;4.05;1.00;;;;;;;;;;4957078;28;20054;-63
2023/01/05 11:28:10;;;;;;;2.88;0.90;;;;;;;;;;4999684;28;20053;-63
2023/01/05 11:30:43;;;;;;;;;;;;;;;;;;5033430;28;20062;-63
2023/01/05 11:33:34;;;;;;;1.98;0.43;;;;;;;;;;5000000;28;19928;-63
2023/01/05 11:36:05;;;;;;;1.60;0.45;;;;;;;;;;5016269;28;20500;-64
2023/01/05 11:38:35;;;;;;;1.58;0.60;;;;;;;;;;5032911;28;20057;-63
2023/01/05 11:41:10;;;;;;;0.68;0.47;;;;;;;;;;5016049;28;20049;-63
2023/01/05 11:43:45;;;;;;;1.60;0.63;;;;;;;;;;5012762;28;20045;-63
2023/01/05 11:46:16;;;;;;;1.20;0.45;;;;;;;;;;5012812;28;20061;-63
2023/01/05 11:48:54;;;;;;;0.98;0.40;;;;;;;;;;5012823;28;20069;-63
2023/01/05 11:51:39;;;;;;;1.10;0.50;;;;;;;;;;5008102;28;20092;-63
2023/01/05 11:54:41;;;;;;;0.95;0.60;;;;;;;;;;5032636;28;20050;-63
2023/01/05 11:57:21;;;;;;;1.83;0.60;;;;;;;;;;4973318;28;20051;-63
2023/01/05 11:59:51;;;;;;;2.20;1.30;;;;;;;;;;4973175;28;20071;-63
2023/01/05 12:03:10;;;;;;;1.17;0.55;;;;;;;;;;4973467;28;20049;-63
2023/01/05 12:05:49;;;;;;;2.15;0.50;;;;;;;;;;4942054;28;20062;-63
2023/01/05 12:08:53;;;;;;;0.85;0.40;;;;;;;;;;4973085;28;20068;-63
2023/01/05 12:11:27;;;;;;;0.93;0.30;;;;;;;;;;4940907;28;20066;-63
2023/01/05 12:14:23;;;;;;;2.45;0.57;;;;;;;;;;4928023;28;20598;-63
2023/01/05 12:16:56;;;;;;;1.65;0.40;;;;;;;;;;4976027;28;20054;-64
2023/01/05 12:19:26;;;;;;;0.50;0.30;;;;;;;;;;4992789;28;20066;-63
2023/01/05 12:21:58;;;;;;;1.25;0.40;;;;;;;;;;4992076;28;20047;-64
2023/01/05 12:24:30;;;;;;;0.98;0.40;;;;;;;;;;4992362;28;20556;-65
2023/01/05 12:27:32;;;;;;;0.88;0.45;;;;;;;;;;4992544;28;20069;-64
2023/01/05 12:30:21;;;;;;;1.00;0.38;;;;;;;;;;4992353;28;20050;-64
2023/01/05 12:33:41;;;;;;;0.68;0.30;;;;;;;;;;5041877;28;20040;-63
2023/01/05 12:36:45;;;;;;;2.95;1.30;;;;;;;;;;5073668;28;20051;-64
2023/01/05 12:39:56;;;;;;;1.45;0.50;;;;;;;;;;5022312;28;20061;-63
2023/01/05 12:42:53;;;;;;;1.70;0.80;;;;;;;;;;5022058;28;20057;-64
2023/01/05 12:45:37;;;;;;;1.77;0.60;;;;;;;;;;5073647;28;20064;-63
2023/01/05 12:48:24;;;;;;;0.40;0.30;;;;;;;;;;5073714;28;20056;-63
2023/01/05 12:51:15;;;;;;;1.50;0.47;;;;;;;;;;5021790;28;20052;-63
2023/01/05 12:53:54;;;;;;;1.73;0.63;;;;;;;;;;4982035;28;20564;-64
2023/01/05 12:56:55;;;;;;;3.30;1.00;;;;;;;;;;4998883;28;20497;-64
2023/01/05 12:59:39;;;;;;;0.55;0.40;;;;;;;;;;5014512;28;20049;-64
2023/01/05 13:02:19;;;;;;;0.80;0.40;;;;;;;;;;5030831;28;20053;-64
2023/01/05 13:05:00;;;;;;;1.02;0.50;;;;;;;;;;5030923;28;20058;-64
2023/01/05 13:07:33;;;;;;;0.98;0.50;;;;;;;;;;5014877;28;20061;-65
2023/01/05 13:10:11;;;;;;;0.70;0.60;;;;;;;;;;5030949;28;20045;-64
2023/01/05 13:12:42;;;;;;;1.90;0.40;;;;;;;;;;5030832;28;20449;-64
2023/01/05 13:15:11;;;;;;;0.77;0.47;;;;;;;;;;5030822;28;20780;-64
2023/01/05 13:17:46;;;;;;;0.88;0.30;;;;;;;;;;5013964;28;20488;-64
2023/01/05 13:20:27;;;;;;;1.95;0.40;;;;;;;;;;5014546;28;20064;-64
2023/01/05 13:23:11;;;;;;;1.75;0.43;;;;;;;;;;5030349;28;20056;-65
2023/01/05 13:26:03;;;;;;;;;;;;;;;;;;5047100;28;20052;-64
2023/01/05 13:28:33;;;;;;;1.55;0.40;;;;;;;;;;5050746;28;19927;-64
2023/01/05 13:31:21;;;;;;;0.82;0.32;;;;;;;;;;5050330;28;20053;-64
2023/01/05 13:34:02;;;;;;;1.88;0.45;;;;;;;;;;5033810;28;20183;-64
2023/01/05 13:37:09;;;;;;;2.22;0.50;;;;;;;;;;5056685;28;20052;-65
2023/01/05 13:40:03;;;;;;;2.40;0.47;;;;;;;;;;5072361;28;20048;-64
2023/01/05 13:42:38;;;;;;;1.15;0.50;;;;;;;;;;5072604;28;20373;-64
2023/01/05 13:45:38;;;;;;;1.40;0.57;;;;;;;;;;5072614;28;20043;-64
2023/01/05 13:48:33;;;;;;;0.98;0.40;;;;;;;;;;5020293;28;20055;-64
2023/01/05 13:51:30;;;;;;;3.10;1.67;;;;;;;;;;5072165;28;20511;-64
2023/01/05 13:54:05;;;;;;;2.95;2.08;;;;;;;;;;5036830;28;20060;-65
2023/01/05 13:56:39;;;;;;;1.05;0.70;;;;;;;;;;5020139;28;20063;-64
2023/01/05 13:59:30;;;;;;;1.98;0.50;;;;;;;;;;5020128;28;20072;-62
2023/01/05 14:02:35;;;;;;;0.90;0.40;;;;;;;;;;5071825;28;20044;-64
2023/01/05 14:05:32;;;;;;;1.52;0.60;;;;;;;;;;5072287;28;20041;-64
2023/01/05 14:08:05;;;;;;;2.47;0.60;;;;;;;;;;5071928;28;20040;-64
2023/01/05 14:10:34;;;;;;;0.73;0.30;;;;;;;;;;5021363;28;20068;-65
2023/01/05 14:13:05;;;;;;;1.27;0.47;;;;;;;;;;5020273;28;20061;-64
2023/01/05 14:15:41;;;;;;;0.77;0.30;;;;;;;;;;5053970;28;20056;-64
2023/01/05 14:18:49;;;;;;;1.38;0.40;;;;;;;;;;5071929;28;20044;-64
2023/01/05 14:21:52;;;;;;;1.60;0.65;;;;;;;;;;5020158;28;20644;-64
2023/01/05 14:24:36;;;;;;;4.65;0.60;;;;;;;;;;5071858;28;20500;-64
2023/01/05 14:27:08;;;;;;;1.40;0.55;;;;;;;;;;5020009;28;20064;-64
2023/01/05 14:29:46;;;;;;;3.25;0.88;;;;;;;;;;5072263;28;20059;-65
2023/01/05 14:32:31;;;;;;;0.85;0.60;;;;;;;;;;5071723;28;20047;-65
2023/01/05 14:35:19;;;;;;;1.80;0.60;;;;;;;;;;5020636;28;20065;-64
2023/01/05 14:37:55;;;;;;;1.35;0.60;;;;;;;;;;5036826;28;20057;-65
2023/01/05 14:40:38;;;;;;;4.38;0.60;;;;;;;;;;5071665;28;20052;-64
2023/01/05 14:43:28;;;;;;;1.98;0.60;;;;;;;;;;5071504;28;20048;-64
2023/01/05 14:46:06;;;;;;;1.73;0.90;;;;;;;;;;5019614;28;20413;-65
2023/01/05 14:48:40;;;;;;;2.67;0.70;;;;;;;;;;5071818;28;20118;-64
2023/01/05 14:51:16;;;;;;;1.60;0.60;;;;;;;;;;5053451;28;20056;-64
2023/01/05 14:53:48;;;;;;;0.93;0.50;;;;;;;;;;5071538;28;20037;-65
2023/01/05 14:56:24;;;;;;;1.20;0.60;;;;;;;;;;5019639;28;20060;-63
2023/01/05 14:59:19;;;;;;;1.52;0.55;;;;;;;;;;5019889;28;20052;-64
2023/01/05 15:01:57;;;;;;;2.00;0.80;;;;;;;;;;5052451;28;20597;-65
2023/01/05 15:04:39;;;;;;;1.52;0.52;;;;;;;;;;5071596;28;20052;-64
2023/01/05 15:07:35;;;;;;;2.22;0.70;;;;;;;;;;5071414;28;20119;-64
2023/01/05 15:10:40;;;;;;;1.20;0.50;;;;;;;;;;5009114;28;20559;-64
2023/01/05 15:13:34;;;;;;;1.10;0.50;;;;;;;;;;4993094;28;20058;-63
2023/01/05 15:16:42;;;;;;;1.92;0.52;;;;;;;;;;5009568;28;20042;-61
2023/01/05 15:19:14;;;;;;;2.38;0.55;;;;;;;;;;4962328;28;20561;-62
2023/01/05 15:21:59;;;;;;;1.10;0.60;;;;;;;;;;5009101;28;20050;-62
2023/01/05 15:25:02;;;;;;;1.45;0.60;;;;;;;;;;5009039;28;20058;-64
2023/01/05 15:28:25;;;;;;;3.28;0.70;;;;;;;;;;5009470;28;20049;-63
2023/01/05 15:31:13;;;;;;;1.80;0.68;;;;;;;;;;4951370;29;20234;-63
2023/01/05 15:33:57;;;;;;;3.60;0.75;;;;;;;;;;4950933;29;20535;-63
2023/01/05 15:36:41;;;;;;;1.90;0.80;;;;;;;;;;4950582;29;20062;-62
2023/01/05 15:39:43;;;;;;;0.90;0.50;;;;;;;;;;4951004;29;20511;-62
2023/01/05 15:42:39;;;;;;;3.80;0.50;;;;;;;;;;4937383;28;20054;-63
2023/01/05 15:45:18;;;;;;;4.78;1.10;;;;;;;;;;4957018;28;20442;-63
2023/01/05 15:47:49;;;;;;;1.33;0.70;;;;;;;;;;4989898;28;20058;-62
2023/01/05 15:50:29;;;;;;;1.60;0.88;;;;;;;;;;4989178;28;20062;-62
2023/01/05 15:53:01;;;;;;;1.70;0.80;;;;;;;;;;4989559;28;20051;-62
2023/01/05 15:55:30;;;;;;;1.83;1.00;;;;;;;;;;4989171;28;20065;-63
2023/01/05 15:58:03;;;;;;;1.00;0.43;;;;;;;;;;4991705;28;20054;-62
2023/01/05 16:00:35;;;;;;;0.95;0.63;;;;;;;;;;4976487;28;20057;-65
2023/01/05 16:03:26;;;;;;;2.58;0.80;;;;;;;;;;4992659;28;20507;-63
2023/01/05 16:06:01;;;;;;;2.28;0.65;;;;;;;;;;5046638;28;20056;-63
2023/01/05 16:08:35;;;;;;;3.40;0.70;;;;;;;;;;5073250;28;20041;-62
2023/01/05 16:11:08;;;;;;;1.50;0.80;;;;;;;;;;5038855;28;20629;-63
2023/01/05 16:14:00;;;;;;;1.38;0.70;;;;;;;;;;5074136;28;20052;-63
2023/01/05 16:16:36;;;;;;;3.35;0.68;;;;;;;;;;5074446;28;20040;-65